createdAt,value
2022-10-29T00:01:45.385Z,100984.59
2022-10-29T00:04:13.454Z,100983.19
2022-10-29T00:06:40.522Z,100987.66
2022-10-29T00:09:07.587Z,100985.94
2022-10-29T00:11:34.721Z,100988.25
2022-10-29T00:14:02.136Z,100991.38
2022-10-29T00:16:36.653Z,100994.75
2022-10-29T00:19:07.012Z,100985.56
2022-10-29T00:21:35.049Z,100987.81
2022-10-29T00:24:03.032Z,100997.03
2022-10-29T00:26:32.015Z,100980.84
2022-10-29T00:29:00.986Z,100987.84
2022-10-29T00:31:29.049Z,100995.25
2022-10-29T00:33:56.205Z,100995.56
2022-10-29T00:36:26.944Z,100991.03
2022-10-29T00:38:54.252Z,100992.16
2022-10-29T00:41:28.312Z,100990.50
2022-10-29T00:44:22.025Z,100983.69
2022-10-29T00:46:56.524Z,100983.84
2022-10-29T00:49:24.786Z,100983.22
2022-10-29T00:51:52.646Z,100988.47
2022-10-29T00:54:19.790Z,100989.69
2022-10-29T00:56:52.925Z,100985.41
2022-10-29T00:59:19.931Z,100988.41
2022-10-29T01:01:49.393Z,100981.88
2022-10-29T01:04:18.201Z,100985.13
2022-10-29T01:06:52.447Z,100989.69
2022-10-29T01:09:20.410Z,100994.03
2022-10-29T01:12:32.729Z,100992.09
2022-10-29T01:15:32.673Z,100997.81
2022-10-29T01:18:13.901Z,100982.03
2022-10-29T01:20:58.418Z,100982.66
2022-10-29T01:24:04.957Z,100976.06
2022-10-29T01:26:54.812Z,100984.47
2022-10-29T01:29:59.606Z,100982.66
2022-10-29T01:32:40.140Z,100983.91
2022-10-29T01:35:31.490Z,100975.47
2022-10-29T01:38:22.852Z,100967.84
2022-10-29T01:41:08.994Z,100976.75
2022-10-29T01:43:50.463Z,100973.00
2022-10-29T01:46:36.130Z,100970.91
2022-10-29T01:49:33.698Z,100967.09
2022-10-29T01:52:05.279Z,100969.88
2022-10-29T01:54:32.362Z,100979.28
2022-10-29T01:57:03.370Z,100967.41
2022-10-29T01:59:36.394Z,100973.63
2022-10-29T02:03:02.118Z,100964.25
2022-10-29T02:05:57.086Z,100964.72
2022-10-29T02:08:57.028Z,100966.00
2022-10-29T02:11:59.231Z,100962.84
2022-10-29T02:14:45.504Z,100950.28
2022-10-29T02:17:12.410Z,100954.31
2022-10-29T02:19:39.489Z,100947.88
2022-10-29T02:22:06.440Z,100954.13
2022-10-29T02:24:33.330Z,100949.59
2022-10-29T02:27:09.668Z,100950.41
2022-10-29T02:29:41.774Z,100943.59
2022-10-29T02:32:15.771Z,100943.00
2022-10-29T02:34:54.965Z,100941.88
2022-10-29T02:37:21.820Z,100949.34
2022-10-29T02:39:48.782Z,100941.16
2022-10-29T02:42:15.653Z,100942.97
2022-10-29T02:44:42.522Z,100945.91
2022-10-29T02:47:11.546Z,100941.34
2022-10-29T02:49:40.446Z,100933.44
2022-10-29T02:52:09.450Z,100929.56
2022-10-29T02:54:43.650Z,100929.22
2022-10-29T02:57:17.110Z,100933.47
2022-10-29T02:59:46.076Z,100933.59
2022-10-29T03:02:17.162Z,100930.09
2022-10-29T03:04:47.204Z,100926.22
2022-10-29T03:07:14.354Z,100918.41
2022-10-29T03:09:41.244Z,100914.81
2022-10-29T03:12:08.443Z,100918.94
2022-10-29T03:14:35.359Z,100920.63
2022-10-29T03:17:02.231Z,100923.94
2022-10-29T03:19:29.138Z,100918.13
2022-10-29T03:21:56.027Z,100918.41
2022-10-29T03:24:26.169Z,100926.97
2022-10-29T03:26:54.133Z,100931.63
2022-10-29T03:29:24.213Z,100923.94
2022-10-29T03:31:57.428Z,100923.00
2022-10-29T03:34:24.487Z,100935.06
2022-10-29T03:36:51.407Z,100941.81
2022-10-29T03:39:18.353Z,100930.28
2022-10-29T03:41:48.345Z,100935.22
2022-10-29T03:44:16.339Z,100931.91
2022-10-29T03:46:46.321Z,100929.69
2022-10-29T03:49:13.254Z,100924.63
2022-10-29T03:51:40.176Z,100922.81
2022-10-29T03:54:07.044Z,100928.31
2022-10-29T03:56:33.953Z,100920.22
2022-10-29T03:59:00.923Z,100923.53
2022-10-29T04:01:28.915Z,100927.25
2022-10-29T04:03:55.892Z,100938.09
2022-10-29T04:06:35.018Z,100933.00
2022-10-29T04:09:12.062Z,100928.38
2022-10-29T04:11:40.989Z,100922.19
2022-10-29T04:14:26.435Z,100920.97
2022-10-29T04:16:53.406Z,100922.88
2022-10-29T04:19:20.306Z,100917.50
2022-10-29T04:28:36.880Z,100919.16
2022-10-29T04:30:25.697Z,100914.22
2022-10-29T04:32:58.317Z,100919.44
2022-10-29T04:35:29.430Z,100927.00
2022-10-29T04:37:56.525Z,100928.66
2022-10-29T04:40:24.620Z,100931.25
2022-10-29T04:42:51.926Z,100944.41
2022-10-29T04:45:19.064Z,100946.72
2022-10-29T04:47:46.215Z,100950.97
2022-10-29T04:50:13.491Z,100945.63
2022-10-29T04:52:40.445Z,100944.41
2022-10-29T04:55:08.838Z,100934.53
2022-10-29T04:57:35.789Z,100933.97
2022-10-29T05:00:03.233Z,100941.50
2022-10-29T05:02:30.171Z,100942.75
2022-10-29T05:05:05.620Z,100934.94
2022-10-29T05:07:34.696Z,100942.75
2022-10-29T05:10:02.629Z,100936.19
2022-10-29T05:12:29.521Z,100943.34
2022-10-29T05:14:56.408Z,100942.91
2022-10-29T05:17:23.355Z,100944.28
2022-10-29T05:19:50.254Z,100932.75
2022-10-29T05:22:17.213Z,100935.09
2022-10-29T05:37:36.989Z,100945.03
2022-10-29T05:43:24.118Z,100944.69
2022-10-29T05:46:07.054Z,100945.63
2022-10-29T05:48:36.062Z,100946.47
2022-10-29T05:51:09.113Z,100945.63
2022-10-29T05:53:36.447Z,100942.09
2022-10-29T05:56:03.513Z,100939.59
2022-10-29T05:58:32.416Z,100938.06
2022-10-29T06:01:10.536Z,100938.78
2022-10-29T06:03:48.690Z,100945.13
2022-10-29T06:06:15.664Z,100936.19
2022-10-29T06:09:04.721Z,100934.41
2022-10-29T06:11:38.838Z,100934.38
2022-10-29T06:14:05.742Z,100932.22
2022-10-29T06:16:32.623Z,100935.78
2022-10-29T06:18:59.498Z,100932.91
2022-10-29T06:21:26.373Z,100938.53
2022-10-29T06:23:54.198Z,100937.44
2022-10-29T06:26:21.149Z,100936.03
2022-10-29T06:28:48.054Z,100931.63
2022-10-29T06:31:16.074Z,100944.13
2022-10-29T06:33:42.940Z,100950.13
2022-10-29T06:36:09.956Z,100950.56
2022-10-29T06:38:37.933Z,100951.75
2022-10-29T06:41:05.921Z,100946.91
2022-10-29T06:43:32.853Z,100953.47
2022-10-29T06:46:01.854Z,100950.59
2022-10-29T06:48:28.861Z,100959.94
2022-10-29T06:50:58.523Z,100949.03
2022-10-29T06:53:25.693Z,100955.38
2022-10-29T06:55:52.949Z,100949.03
2022-10-29T06:58:21.176Z,100955.38
2022-10-29T07:00:50.339Z,100952.69
2022-10-29T07:03:19.962Z,100957.22
2022-10-29T07:05:47.650Z,100963.41
2022-10-29T07:08:14.520Z,100957.63
2022-10-29T07:10:41.658Z,100961.94
2022-10-29T07:13:09.933Z,100959.97
2022-10-29T07:15:36.855Z,100953.63
2022-10-29T07:18:06.859Z,100960.16
2022-10-29T07:20:45.225Z,100954.28
2022-10-29T07:23:13.462Z,100957.63
2022-10-29T07:25:41.154Z,100968.19
2022-10-29T07:28:18.296Z,100964.00
2022-10-29T07:30:45.528Z,100961.69
2022-10-29T07:33:12.512Z,100959.69
2022-10-29T07:35:39.445Z,100960.88
2022-10-29T07:38:10.930Z,100960.50
2022-10-29T07:40:40.313Z,100966.44
2022-10-29T07:43:09.403Z,100968.88
2022-10-29T07:45:36.341Z,100961.94
2022-10-29T07:48:07.879Z,100969.19
2022-10-29T07:50:38.166Z,100967.47
2022-10-29T07:53:06.843Z,100971.97
2022-10-29T07:55:36.432Z,100973.91
2022-10-29T07:58:08.155Z,100978.91
2022-10-29T08:00:38.261Z,100977.47
2022-10-29T08:03:06.310Z,100976.81
2022-10-29T08:05:34.076Z,100973.00
2022-10-29T08:08:01.146Z,100968.59
2022-10-29T08:10:30.220Z,100973.13
2022-10-29T08:13:00.325Z,100975.31
2022-10-29T08:15:32.771Z,100961.03
2022-10-29T08:18:00.130Z,100970.00
2022-10-29T08:20:30.032Z,100969.59
2022-10-29T08:23:01.574Z,100960.53
2022-10-29T08:25:29.476Z,100969.94
2022-10-29T08:28:04.836Z,100972.31
2022-10-29T08:30:32.511Z,100966.72
2022-10-29T08:33:00.545Z,100958.88
2022-10-29T08:35:29.203Z,100952.16
2022-10-29T08:37:56.735Z,100954.13
2022-10-29T08:41:27.225Z,100951.97
2022-10-29T08:45:00.671Z,100961.00
2022-10-29T08:47:32.571Z,100964.81
2022-10-29T08:50:28.900Z,100965.41
2022-10-29T08:53:19.522Z,100959.16
2022-10-29T08:55:45.848Z,100954.66
2022-10-29T08:58:54.538Z,100959.31
2022-10-29T09:01:23.987Z,100953.47
2022-10-29T09:03:51.785Z,100955.22
2022-10-29T09:06:54.602Z,100948.88
2022-10-29T09:09:43.457Z,100947.88
2022-10-29T09:12:52.068Z,100950.97
2022-10-29T09:15:37.893Z,100948.19
2022-10-29T09:18:13.789Z,100945.78
2022-10-29T09:20:51.005Z,100940.00
2022-10-29T09:23:46.458Z,100939.41
2022-10-29T09:26:24.549Z,100947.28
2022-10-29T09:29:35.467Z,100939.84
2022-10-29T09:32:17.962Z,100946.75
2022-10-29T09:34:52.650Z,100952.84
2022-10-29T09:37:39.608Z,100960.66
2022-10-29T09:40:25.810Z,100945.50
2022-10-29T09:42:54.022Z,100959.03
2022-10-29T09:45:32.275Z,100942.81
2022-10-29T09:48:20.767Z,100935.81
2022-10-29T09:51:06.434Z,100919.81
2022-10-29T09:53:33.322Z,100922.13
2022-10-29T09:56:00.280Z,100923.75
2022-10-29T09:58:28.864Z,100918.88
2022-10-29T10:00:58.927Z,100914.25
2022-10-29T10:03:29.441Z,100917.53
2022-10-29T10:06:08.938Z,100915.59
2022-10-29T10:09:05.630Z,100914.84
2022-10-29T10:11:42.355Z,100908.13
2022-10-29T10:14:22.571Z,100913.75
2022-10-29T10:17:01.209Z,100903.78
2022-10-29T10:19:31.467Z,100888.50
2022-10-29T10:22:04.917Z,100890.09
2022-10-29T10:24:37.752Z,100885.47
2022-10-29T10:27:19.829Z,100885.34
2022-10-29T10:30:13.407Z,100887.28
2022-10-29T10:32:41.698Z,100881.13
2022-10-29T10:35:32.286Z,100879.91
2022-10-29T10:38:08.806Z,100874.66
2022-10-29T10:40:36.229Z,100860.38
2022-10-29T10:43:06.863Z,100859.63
2022-10-29T10:45:40.216Z,100850.41
2022-10-29T10:48:11.365Z,100846.94
2022-10-29T10:50:38.545Z,100831.47
2022-10-29T10:53:20.434Z,100830.25
2022-10-29T10:55:53.257Z,100823.69
2022-10-29T10:58:50.857Z,100821.84
2022-10-29T11:01:42.341Z,100819.84
2022-10-29T11:04:27.903Z,100814.75
2022-10-29T11:07:01.258Z,100823.31
2022-10-29T11:09:35.082Z,100821.88
2022-10-29T11:12:11.895Z,100816.16
2022-10-29T11:14:47.036Z,100814.88
2022-10-29T11:17:33.162Z,100812.25
2022-10-29T11:20:08.493Z,100808.69
2022-10-29T11:23:22.713Z,100803.53
2022-10-29T11:26:00.870Z,100804.59
2022-10-29T11:28:41.333Z,100805.19
2022-10-29T11:31:43.069Z,100794.19
2022-10-29T11:34:37.880Z,100783.41
2022-10-29T11:37:36.689Z,100771.88
2022-10-29T11:40:43.828Z,100781.47
2022-10-29T11:43:17.888Z,100767.38
2022-10-29T11:46:18.422Z,100778.38
2022-10-29T11:49:15.554Z,100772.97
2022-10-29T11:52:21.409Z,100768.06
2022-10-29T11:55:28.867Z,100748.00
2022-10-29T11:58:10.267Z,100747.44
2022-10-29T12:01:13.660Z,100749.69
2022-10-29T12:04:11.845Z,100747.78
2022-10-29T12:06:54.913Z,100750.34
2022-10-29T12:10:16.844Z,100748.88
2022-10-29T12:13:00.153Z,100751.75
2022-10-29T12:15:35.950Z,100747.81
2022-10-29T12:18:23.938Z,100741.50
2022-10-29T12:21:17.053Z,100741.81
2022-10-29T12:24:29.981Z,100745.22
2022-10-29T12:27:25.825Z,100732.13
2022-10-29T12:30:02.828Z,100730.97
2022-10-29T12:32:33.852Z,100732.50
2022-10-29T12:35:29.799Z,100723.28
2022-10-29T12:38:18.128Z,100720.34
2022-10-29T12:40:50.719Z,100723.44
2022-10-29T12:43:26.477Z,100718.69
2022-10-29T12:46:21.882Z,100715.25
2022-10-29T12:49:24.384Z,100696.44
2022-10-29T12:54:47.223Z,100704.63
2022-10-29T12:57:14.021Z,100693.13
2022-10-29T12:59:44.493Z,100691.81
2022-10-29T13:02:44.675Z,100696.50
2022-10-29T13:05:11.622Z,100699.50
2022-10-29T13:08:04.305Z,100694.41
2022-10-29T13:10:34.293Z,100690.72
2022-10-29T13:13:16.089Z,100690.97
2022-10-29T13:16:00.595Z,100687.94
2022-10-29T13:18:49.934Z,100680.09
2022-10-29T13:21:56.270Z,100680.25
2022-10-29T13:24:24.651Z,100673.50
2022-10-29T13:27:17.405Z,100671.94
2022-10-29T13:29:51.090Z,100673.69
2022-10-29T13:32:37.725Z,100660.91
2022-10-29T13:35:25.971Z,100661.69
2022-10-29T13:38:08.814Z,100658.84
2022-10-29T13:41:00.026Z,100656.59
2022-10-29T13:43:28.453Z,100651.09
2022-10-29T13:46:22.605Z,100640.91
2022-10-29T13:48:52.476Z,100648.34
2022-10-29T13:51:36.078Z,100652.19
2022-10-29T13:54:22.392Z,100648.19
2022-10-29T13:56:59.644Z,100641.09
2022-10-29T14:00:09.683Z,100634.91
2022-10-29T14:02:42.758Z,100636.06
2022-10-29T14:05:37.832Z,100644.13
2022-10-29T14:08:37.876Z,100649.13
2022-10-29T14:11:28.547Z,100651.78
2022-10-29T14:14:01.347Z,100649.72
2022-10-29T14:16:34.532Z,100657.94
2022-10-29T14:19:33.917Z,100665.91
2022-10-29T14:22:00.796Z,100663.72
2022-10-29T14:24:37.301Z,100672.13
2022-10-29T14:27:08.306Z,100668.28
2022-10-29T14:29:35.165Z,100666.44
2022-10-29T14:32:19.327Z,100674.50
2022-10-29T14:34:50.211Z,100681.09
2022-10-29T14:37:25.826Z,100681.97
2022-10-29T14:39:58.232Z,100679.19
2022-10-29T14:42:40.869Z,100682.28
2022-10-29T14:45:25.285Z,100682.91
2022-10-29T14:48:09.564Z,100673.72
2022-10-29T14:50:37.570Z,100670.28
2022-10-29T14:53:25.071Z,100679.88
2022-10-29T14:55:52.110Z,100686.22
2022-10-29T14:58:31.064Z,100683.41
2022-10-29T15:01:09.954Z,100679.13
2022-10-29T15:03:37.311Z,100673.41
2022-10-29T15:06:26.186Z,100667.31
2022-10-29T15:08:59.839Z,100671.81
2022-10-29T15:11:38.449Z,100671.41
2022-10-29T15:14:36.755Z,100664.88
2022-10-29T15:17:11.717Z,100669.75
2022-10-29T15:19:45.198Z,100671.56
2022-10-29T15:22:24.358Z,100668.50
2022-10-29T15:24:53.029Z,100678.06
2022-10-29T15:27:21.542Z,100669.09
2022-10-29T15:29:49.481Z,100679.03
2022-10-29T15:32:18.212Z,100670.94
2022-10-29T15:34:55.606Z,100670.94
2022-10-29T15:37:31.422Z,100675.19
2022-10-29T15:40:13.192Z,100669.28
2022-10-29T15:42:40.872Z,100655.84
2022-10-29T15:45:07.748Z,100667.63
2022-10-29T15:47:40.425Z,100663.53
2022-10-29T15:50:13.784Z,100657.16
2022-10-29T15:52:45.878Z,100658.94
2022-10-29T15:55:32.381Z,100661.78
2022-10-29T15:58:22.640Z,100664.19
2022-10-29T16:00:51.563Z,100663.31
2022-10-29T16:03:23.777Z,100659.03
2022-10-29T16:05:56.333Z,100658.56
2022-10-29T16:08:33.656Z,100662.16
2022-10-29T16:11:05.566Z,100666.75
2022-10-29T16:13:33.108Z,100669.72
2022-10-29T16:16:00.206Z,100668.63
2022-10-29T16:18:27.608Z,100664.16
2022-10-29T16:21:00.246Z,100663.25
2022-10-29T16:23:27.298Z,100659.91
2022-10-29T16:25:54.386Z,100669.94
2022-10-29T16:28:22.314Z,100666.06
2022-10-29T16:30:54.280Z,100667.19
2022-10-29T16:33:21.248Z,100667.19
2022-10-29T16:35:48.246Z,100666.44
2022-10-29T16:38:17.612Z,100663.31
2022-10-29T16:40:45.177Z,100659.41
2022-10-29T16:43:12.220Z,100666.59
2022-10-29T16:45:41.258Z,100660.97
2022-10-29T16:48:08.313Z,100667.25
2022-10-29T16:50:35.313Z,100669.44
2022-10-29T16:53:10.041Z,100665.56
2022-10-29T16:55:40.749Z,100660.84
2022-10-29T16:58:12.353Z,100659.59
2022-10-29T17:00:39.557Z,100669.59
2022-10-29T17:03:11.750Z,100671.56
2022-10-29T17:05:42.904Z,100665.03
2022-10-29T17:08:10.793Z,100674.72
2022-10-29T17:10:37.841Z,100667.75
2022-10-29T17:13:07.069Z,100675.03
2022-10-29T17:15:34.001Z,100670.41
2022-10-29T17:18:01.407Z,100672.47
2022-10-29T17:20:28.587Z,100674.22
2022-10-29T17:22:55.641Z,100674.13
2022-10-29T17:25:22.642Z,100680.75
2022-10-29T17:27:49.685Z,100674.03
2022-10-29T17:30:16.669Z,100677.19
2022-10-29T17:32:43.546Z,100675.75
2022-10-29T17:35:10.485Z,100665.03
2022-10-29T17:37:37.482Z,100677.94
2022-10-29T17:40:08.175Z,100684.81
2022-10-29T17:42:35.854Z,100682.38
2022-10-29T17:45:02.799Z,100682.94
2022-10-29T17:47:30.315Z,100683.81
2022-10-29T17:49:57.283Z,100685.53
2022-10-29T17:52:24.228Z,100686.78
2022-10-29T17:54:51.202Z,100694.97
2022-10-29T17:57:18.635Z,100687.91
2022-10-29T17:59:46.601Z,100688.72
2022-10-29T18:02:13.674Z,100684.69
2022-10-29T18:04:40.766Z,100683.19
2022-10-29T18:07:07.784Z,100683.91
2022-10-29T18:09:34.782Z,100689.09
2022-10-29T18:12:01.745Z,100680.75
2022-10-29T18:14:28.712Z,100684.59
2022-10-29T18:16:55.601Z,100683.97
2022-10-29T18:19:23.761Z,100692.06
2022-10-29T18:21:50.710Z,100692.44
2022-10-29T18:24:19.392Z,100685.50
2022-10-29T18:26:50.276Z,100692.94
2022-10-29T18:29:18.704Z,100681.81
2022-10-29T18:31:46.748Z,100690.66
2022-10-29T18:34:15.340Z,100689.28
2022-10-29T18:36:43.167Z,100692.50
2022-10-29T18:39:10.260Z,100699.56
2022-10-29T18:41:37.292Z,100695.66
2022-10-29T18:44:04.598Z,100689.44
2022-10-29T18:46:31.491Z,100689.06
2022-10-29T18:49:00.090Z,100685.00
2022-10-29T18:51:31.469Z,100681.34
2022-10-29T18:53:59.545Z,100681.09
2022-10-29T18:56:28.300Z,100687.44
2022-10-29T18:58:56.774Z,100684.69
2022-10-29T19:01:27.704Z,100676.38
2022-10-29T19:03:57.612Z,100677.50
2022-10-29T19:06:28.201Z,100674.28
2022-10-29T19:08:56.253Z,100672.75
2022-10-29T19:11:25.621Z,100676.84
2022-10-29T19:13:54.416Z,100676.63
2022-10-29T19:16:21.981Z,100671.13
2022-10-29T19:18:54.396Z,100672.13
2022-10-29T19:21:21.426Z,100676.47
2022-10-29T19:23:48.446Z,100669.69
2022-10-29T19:26:18.440Z,100674.03
2022-10-29T19:28:47.415Z,100672.13
2022-10-29T19:31:26.349Z,100670.59
2022-10-29T19:33:56.956Z,100676.44
2022-10-29T19:36:25.578Z,100671.50
2022-10-29T19:38:52.723Z,100677.91
2022-10-29T19:41:19.880Z,100684.31
2022-10-29T19:43:47.457Z,100678.75
2022-10-29T19:46:24.348Z,100686.81
2022-10-29T19:48:53.850Z,100681.88
2022-10-29T19:51:21.746Z,100677.31
2022-10-29T19:53:51.553Z,100679.78
2022-10-29T19:56:19.900Z,100677.97
2022-10-29T19:58:47.935Z,100675.22
2022-10-29T20:01:18.432Z,100681.75
2022-10-29T20:03:46.565Z,100684.53
2022-10-29T20:06:14.368Z,100691.09
2022-10-29T20:08:41.284Z,100691.59
2022-10-29T20:11:08.785Z,100692.56
2022-10-29T20:13:36.608Z,100690.56
2022-10-29T20:16:20.666Z,100685.78
2022-10-29T20:18:48.691Z,100689.41
2022-10-29T20:21:16.358Z,100685.66
2022-10-29T20:23:44.698Z,100684.97
2022-10-29T20:26:12.624Z,100680.72
2022-10-29T20:28:39.581Z,100689.28
2022-10-29T20:31:24.372Z,100690.91
2022-10-29T20:33:58.050Z,100689.28
2022-10-29T20:36:28.429Z,100682.69
2022-10-29T20:38:55.677Z,100686.31
2022-10-29T20:41:23.332Z,100683.69
2022-10-29T20:44:00.000Z,100685.94
2022-10-29T20:46:27.614Z,100689.91
2022-10-29T20:48:54.767Z,100684.16
2022-10-29T20:51:23.080Z,100686.66
2022-10-29T20:53:51.178Z,100682.75
2022-10-29T20:56:21.265Z,100688.28
2022-10-29T20:58:48.327Z,100689.63
2022-10-29T21:01:18.760Z,100691.91
2022-10-29T21:03:47.434Z,100690.72
2022-10-29T21:06:17.817Z,100692.38
2022-10-29T21:08:46.759Z,100695.81
2022-10-29T21:11:16.479Z,100699.28
2022-10-29T21:13:46.218Z,100695.84
2022-10-29T21:16:29.034Z,100695.69
2022-10-29T21:19:01.068Z,100701.59
2022-10-29T21:21:30.204Z,100695.81
2022-10-29T21:23:58.451Z,100698.78
2022-10-29T21:26:27.989Z,100691.91
2022-10-29T21:28:57.515Z,100700.16
2022-10-29T21:31:24.998Z,100696.03
2022-10-29T21:33:52.926Z,100700.28
2022-10-29T21:36:22.164Z,100694.91
2022-10-29T21:38:49.506Z,100697.34
2022-10-29T21:41:17.048Z,100696.53
2022-10-29T21:43:45.036Z,100699.66
2022-10-29T21:46:12.150Z,100698.00
2022-10-29T21:48:44.280Z,100700.81
2022-10-29T21:51:14.137Z,100701.13
2022-10-29T21:53:45.259Z,100699.78
2022-10-29T21:56:17.359Z,100696.69
2022-10-29T21:58:45.283Z,100709.00
2022-10-29T22:01:17.684Z,100694.59
2022-10-29T22:03:47.875Z,100700.50
2022-10-29T22:06:28.147Z,100703.06
2022-10-29T22:08:59.627Z,100702.63
2022-10-29T22:11:28.594Z,100705.38
2022-10-29T22:13:56.524Z,100705.69
2022-10-29T22:16:24.623Z,100702.28
2022-10-29T22:18:51.737Z,100703.13
2022-10-29T22:21:23.472Z,100695.88
2022-10-29T22:23:56.556Z,100690.47
2022-10-29T22:26:27.385Z,100700.97
2022-10-29T22:28:54.318Z,100698.84
2022-10-29T22:31:23.046Z,100695.56
2022-10-29T22:33:50.574Z,100686.38
2022-10-29T22:36:23.387Z,100693.94
2022-10-29T22:38:55.835Z,100702.44
2022-10-29T22:41:26.032Z,100702.72
2022-10-29T22:43:53.348Z,100707.22
2022-10-29T22:46:22.083Z,100700.56
2022-10-29T22:48:49.348Z,100707.94
2022-10-29T22:51:21.590Z,100711.91
2022-10-29T22:53:49.393Z,100700.13
2022-10-29T22:56:20.795Z,100696.84
2022-10-29T22:58:48.396Z,100692.25
2022-10-29T23:01:22.261Z,100698.84
2022-10-29T23:03:49.634Z,100695.72
2022-10-29T23:06:23.360Z,100691.63
2022-10-29T23:08:56.107Z,100686.22
2022-10-29T23:11:26.810Z,100680.66
2022-10-29T23:13:57.210Z,100686.38
2022-10-29T23:16:27.517Z,100686.53
2022-10-29T23:18:59.483Z,100684.41
2022-10-29T23:21:26.678Z,100680.63
2022-10-29T23:23:54.172Z,100681.78
2022-10-29T23:26:23.260Z,100676.56
2022-10-29T23:28:51.439Z,100675.41
2022-10-29T23:31:24.650Z,100673.94
2022-10-29T23:33:54.661Z,100670.94
2022-10-29T23:36:24.438Z,100667.84
2022-10-29T23:38:57.162Z,100672.28
2022-10-29T23:41:24.918Z,100668.00
2022-10-29T23:43:51.836Z,100668.66
2022-10-29T23:46:25.112Z,100666.19
2022-10-29T23:48:53.117Z,100670.59
2022-10-29T23:51:23.294Z,100670.47
2022-10-29T23:53:53.185Z,100669.31
2022-10-29T23:56:23.393Z,100675.19
2022-10-29T23:58:52.331Z,100673.09
